sensor_id;sensor_type;location;lat;lon;timestamp;pressure;altitude;pressure_sealevel;temperature;humidity
77975;BME280;67164;51.202;0.278;2023-08-20T00:00:44;101718.67;;;26.12;46.32
77975;BME280;67164;51.202;0.278;2023-08-20T00:03:11;101724.25;;;26.31;46.36
77975;BME280;67164;51.202;0.278;2023-08-20T00:05:36;101723.42;;;26.42;46.28
77975;BME280;67164;51.202;0.278;2023-08-20T00:08:01;101722.54;;;26.18;46.43
77975;BME280;67164;51.202;0.278;2023-08-20T00:10:27;101725.25;;;26.18;46.64
77975;BME280;67164;51.202;0.278;2023-08-20T00:12:53;101725.76;;;26.13;46.49
77975;BME280;67164;51.202;0.278;2023-08-20T00:15:18;101726.82;;;26.11;46.45
77975;BME280;67164;51.202;0.278;2023-08-20T00:17:45;101726.36;;;26.10;46.41
77975;BME280;67164;51.202;0.278;2023-08-20T00:20:13;101727.45;;;26.06;46.44
77975;BME280;67164;51.202;0.278;2023-08-20T00:22:37;101727.98;;;26.22;46.24
77975;BME280;67164;51.202;0.278;2023-08-20T00:25:02;101724.50;;;26.21;46.24
77975;BME280;67164;51.202;0.278;2023-08-20T00:27:27;101726.86;;;26.16;46.47
77975;BME280;67164;51.202;0.278;2023-08-20T00:29:53;101734.70;;;25.99;46.40
77975;BME280;67164;51.202;0.278;2023-08-20T00:32:18;101734.38;;;25.97;46.46
77975;BME280;67164;51.202;0.278;2023-08-20T00:34:44;101737.81;;;26.24;46.50
77975;BME280;67164;51.202;0.278;2023-08-20T00:37:10;101739.17;;;26.41;46.50
77975;BME280;67164;51.202;0.278;2023-08-20T00:39:35;101740.85;;;26.01;46.36
77975;BME280;67164;51.202;0.278;2023-08-20T00:42:01;101745.35;;;26.13;46.50
77975;BME280;67164;51.202;0.278;2023-08-20T00:44:27;101743.34;;;26.05;46.58
77975;BME280;67164;51.202;0.278;2023-08-20T00:46:53;101741.05;;;26.29;46.23
77975;BME280;67164;51.202;0.278;2023-08-20T00:49:18;101746.89;;;26.12;46.42
77975;BME280;67164;51.202;0.278;2023-08-20T00:51:45;101752.50;;;26.13;46.37
77975;BME280;67164;51.202;0.278;2023-08-20T00:54:10;101756.86;;;26.12;46.38
77975;BME280;67164;51.202;0.278;2023-08-20T00:56:35;101759.57;;;26.02;46.51
77975;BME280;67164;51.202;0.278;2023-08-20T00:59:01;101760.16;;;25.76;46.48
77975;BME280;67164;51.202;0.278;2023-08-20T01:01:27;101759.71;;;25.81;46.40
77975;BME280;67164;51.202;0.278;2023-08-20T01:03:52;101758.95;;;25.56;46.38
77975;BME280;67164;51.202;0.278;2023-08-20T01:06:28;101757.94;;;25.64;46.64
77975;BME280;67164;51.202;0.278;2023-08-20T01:08:46;101760.04;;;25.75;46.43
77975;BME280;67164;51.202;0.278;2023-08-20T01:11:16;101759.31;;;26.04;46.31
77975;BME280;67164;51.202;0.278;2023-08-20T01:13:35;101760.38;;;25.98;46.39
77975;BME280;67164;51.202;0.278;2023-08-20T01:16:01;101763.59;;;25.97;46.42
77975;BME280;67164;51.202;0.278;2023-08-20T01:18:27;101767.01;;;25.61;46.48
77975;BME280;67164;51.202;0.278;2023-08-20T01:20:57;101767.76;;;25.71;46.37
77975;BME280;67164;51.202;0.278;2023-08-20T01:23:36;101768.04;;;25.87;46.43
77975;BME280;67164;51.202;0.278;2023-08-20T01:25:55;101767.98;;;25.95;46.31
77975;BME280;67164;51.202;0.278;2023-08-20T01:28:22;101769.40;;;25.86;46.38
77975;BME280;67164;51.202;0.278;2023-08-20T01:30:37;101766.00;;;25.90;46.29
77975;BME280;67164;51.202;0.278;2023-08-20T01:33:02;101763.51;;;25.94;46.22
77975;BME280;67164;51.202;0.278;2023-08-20T01:35:27;101764.85;;;25.82;46.41
77975;BME280;67164;51.202;0.278;2023-08-20T01:37:53;101766.09;;;25.64;46.30
77975;BME280;67164;51.202;0.278;2023-08-20T01:40:19;101767.21;;;25.86;46.37
77975;BME280;67164;51.202;0.278;2023-08-20T01:42:45;101768.64;;;25.75;46.48
77975;BME280;67164;51.202;0.278;2023-08-20T01:45:10;101768.04;;;25.44;46.57
77975;BME280;67164;51.202;0.278;2023-08-20T01:47:36;101765.31;;;25.85;46.24
77975;BME280;67164;51.202;0.278;2023-08-20T01:50:02;101768.54;;;26.08;46.29
77975;BME280;67164;51.202;0.278;2023-08-20T01:52:28;101768.89;;;25.84;46.29
77975;BME280;67164;51.202;0.278;2023-08-20T01:54:53;101771.53;;;25.71;46.11
77975;BME280;67164;51.202;0.278;2023-08-20T01:57:19;101770.68;;;26.07;45.81
77975;BME280;67164;51.202;0.278;2023-08-20T01:59:45;101768.73;;;25.81;46.20
77975;BME280;67164;51.202;0.278;2023-08-20T02:02:11;101771.44;;;25.95;45.88
77975;BME280;67164;51.202;0.278;2023-08-20T02:04:36;101777.39;;;25.81;46.16
77975;BME280;67164;51.202;0.278;2023-08-20T02:07:02;101779.19;;;25.81;46.18
77975;BME280;67164;51.202;0.278;2023-08-20T02:09:28;101781.37;;;25.43;46.32
77975;BME280;67164;51.202;0.278;2023-08-20T02:11:54;101785.17;;;25.91;45.98
77975;BME280;67164;51.202;0.278;2023-08-20T02:14:20;101787.13;;;25.75;46.17
77975;BME280;67164;51.202;0.278;2023-08-20T02:16:46;101790.75;;;25.58;46.37
77975;BME280;67164;51.202;0.278;2023-08-20T02:19:11;101795.01;;;25.55;46.39
77975;BME280;67164;51.202;0.278;2023-08-20T02:21:37;101795.09;;;25.52;46.51
77975;BME280;67164;51.202;0.278;2023-08-20T02:24:03;101792.85;;;25.60;46.36
77975;BME280;67164;51.202;0.278;2023-08-20T02:26:28;101793.44;;;25.67;46.25
77975;BME280;67164;51.202;0.278;2023-08-20T02:28:54;101795.37;;;25.48;46.44
77975;BME280;67164;51.202;0.278;2023-08-20T02:31:20;101797.30;;;25.46;46.49
77975;BME280;67164;51.202;0.278;2023-08-20T02:33:45;101794.88;;;25.70;46.15
77975;BME280;67164;51.202;0.278;2023-08-20T02:36:11;101793.76;;;25.57;46.28
77975;BME280;67164;51.202;0.278;2023-08-20T02:38:36;101790.28;;;25.50;46.42
77975;BME280;67164;51.202;0.278;2023-08-20T02:41:02;101792.12;;;25.59;46.18
77975;BME280;67164;51.202;0.278;2023-08-20T02:43:28;101795.12;;;25.42;46.44
77975;BME280;67164;51.202;0.278;2023-08-20T02:45:54;101796.84;;;25.56;46.71
77975;BME280;67164;51.202;0.278;2023-08-20T02:48:20;101798.46;;;25.75;46.37
77975;BME280;67164;51.202;0.278;2023-08-20T02:50:45;101799.28;;;25.49;46.67
77975;BME280;67164;51.202;0.278;2023-08-20T02:53:11;101796.11;;;25.43;46.44
77975;BME280;67164;51.202;0.278;2023-08-20T02:55:37;101798.35;;;25.39;46.48
77975;BME280;67164;51.202;0.278;2023-08-20T02:58:03;101797.23;;;25.52;46.61
77975;BME280;67164;51.202;0.278;2023-08-20T03:00:29;101796.41;;;25.34;46.53
77975;BME280;67164;51.202;0.278;2023-08-20T03:02:54;101795.27;;;25.69;46.40
77975;BME280;67164;51.202;0.278;2023-08-20T03:05:20;101793.73;;;25.37;46.40
77975;BME280;67164;51.202;0.278;2023-08-20T03:07:46;101794.01;;;25.36;46.51
77975;BME280;67164;51.202;0.278;2023-08-20T03:10:12;101793.58;;;25.12;46.81
77975;BME280;67164;51.202;0.278;2023-08-20T03:12:37;101791.96;;;25.26;46.72
77975;BME280;67164;51.202;0.278;2023-08-20T03:15:04;101796.28;;;25.22;46.76
77975;BME280;67164;51.202;0.278;2023-08-20T03:17:29;101793.83;;;25.16;46.72
77975;BME280;67164;51.202;0.278;2023-08-20T03:19:57;101793.92;;;25.61;46.37
77975;BME280;67164;51.202;0.278;2023-08-20T03:22:20;101794.51;;;25.54;46.60
77975;BME280;67164;51.202;0.278;2023-08-20T03:24:46;101798.28;;;25.74;46.30
77975;BME280;67164;51.202;0.278;2023-08-20T03:27:12;101802.45;;;25.63;46.40
77975;BME280;67164;51.202;0.278;2023-08-20T03:29:38;101804.84;;;25.39;46.42
77975;BME280;67164;51.202;0.278;2023-08-20T03:32:04;101808.13;;;25.45;46.36
77975;BME280;67164;51.202;0.278;2023-08-20T03:34:29;101811.23;;;25.46;46.34
77975;BME280;67164;51.202;0.278;2023-08-20T03:36:55;101813.53;;;25.40;46.34
77975;BME280;67164;51.202;0.278;2023-08-20T03:39:21;101815.59;;;25.27;46.46
77975;BME280;67164;51.202;0.278;2023-08-20T03:41:46;101816.91;;;25.55;46.48
77975;BME280;67164;51.202;0.278;2023-08-20T03:44:12;101814.23;;;25.18;46.67
77975;BME280;67164;51.202;0.278;2023-08-20T03:46:38;101822.51;;;25.61;46.35
77975;BME280;67164;51.202;0.278;2023-08-20T03:49:04;101820.65;;;25.24;46.57
77975;BME280;67164;51.202;0.278;2023-08-20T03:51:29;101824.39;;;25.46;46.23
77975;BME280;67164;51.202;0.278;2023-08-20T03:53:55;101826.35;;;25.38;46.35
77975;BME280;67164;51.202;0.278;2023-08-20T03:56:21;101829.75;;;25.40;46.67
77975;BME280;67164;51.202;0.278;2023-08-20T03:58:47;101828.32;;;25.36;46.67
77975;BME280;67164;51.202;0.278;2023-08-20T04:01:13;101830.62;;;25.18;46.65
77975;BME280;67164;51.202;0.278;2023-08-20T04:03:38;101830.70;;;25.32;46.73
77975;BME280;67164;51.202;0.278;2023-08-20T04:06:04;101833.90;;;25.20;46.61
77975;BME280;67164;51.202;0.278;2023-08-20T04:08:29;101839.33;;;25.22;46.66
77975;BME280;67164;51.202;0.278;2023-08-20T04:10:55;101842.48;;;25.47;46.51
77975;BME280;67164;51.202;0.278;2023-08-20T04:13:21;101843.59;;;25.12;46.68
77975;BME280;67164;51.202;0.278;2023-08-20T04:15:47;101841.21;;;25.21;46.81
77975;BME280;67164;51.202;0.278;2023-08-20T04:18:13;101841.60;;;25.16;46.64
77975;BME280;67164;51.202;0.278;2023-08-20T04:20:38;101843.94;;;25.72;46.58
77975;BME280;67164;51.202;0.278;2023-08-20T04:23:04;101847.33;;;25.35;46.69
77975;BME280;67164;51.202;0.278;2023-08-20T04:25:30;101847.23;;;25.47;46.57
77975;BME280;67164;51.202;0.278;2023-08-20T04:27:56;101843.88;;;25.46;46.42
77975;BME280;67164;51.202;0.278;2023-08-20T04:30:21;101847.30;;;25.12;46.61
77975;BME280;67164;51.202;0.278;2023-08-20T04:32:47;101846.41;;;25.39;46.51
77975;BME280;67164;51.202;0.278;2023-08-20T04:35:13;101847.40;;;25.34;46.55
77975;BME280;67164;51.202;0.278;2023-08-20T04:37:39;101847.40;;;25.45;46.55
77975;BME280;67164;51.202;0.278;2023-08-20T04:40:06;101844.49;;;25.12;46.54
77975;BME280;67164;51.202;0.278;2023-08-20T04:42:30;101839.61;;;25.56;46.61
77975;BME280;67164;51.202;0.278;2023-08-20T04:44:56;101844.43;;;25.24;46.80
77975;BME280;67164;51.202;0.278;2023-08-20T04:47:22;101847.06;;;25.37;46.58
77975;BME280;67164;51.202;0.278;2023-08-20T04:49:47;101844.01;;;25.34;46.56
77975;BME280;67164;51.202;0.278;2023-08-20T04:52:13;101848.81;;;25.18;46.39
77975;BME280;67164;51.202;0.278;2023-08-20T04:54:39;101851.21;;;24.95;46.74
77975;BME280;67164;51.202;0.278;2023-08-20T04:57:05;101858.26;;;25.34;46.62
77975;BME280;67164;51.202;0.278;2023-08-20T04:59:30;101858.04;;;24.99;46.85
77975;BME280;67164;51.202;0.278;2023-08-20T05:01:56;101855.27;;;25.01;46.67
77975;BME280;67164;51.202;0.278;2023-08-20T05:04:22;101859.64;;;25.25;46.73
77975;BME280;67164;51.202;0.278;2023-08-20T05:06:48;101868.03;;;25.35;46.90
77975;BME280;67164;51.202;0.278;2023-08-20T05:09:15;101870.92;;;25.49;46.72
77975;BME280;67164;51.202;0.278;2023-08-20T05:11:39;101875.14;;;25.54;46.65
77975;BME280;67164;51.202;0.278;2023-08-20T05:14:05;101881.02;;;24.99;46.75
77975;BME280;67164;51.202;0.278;2023-08-20T05:16:31;101881.15;;;25.09;46.62
77975;BME280;67164;51.202;0.278;2023-08-20T05:18:57;101882.48;;;25.23;46.75
77975;BME280;67164;51.202;0.278;2023-08-20T05:21:22;101888.40;;;25.58;46.61
77975;BME280;67164;51.202;0.278;2023-08-20T05:23:48;101889.33;;;25.50;46.73
77975;BME280;67164;51.202;0.278;2023-08-20T05:26:14;101893.55;;;25.13;46.64
77975;BME280;67164;51.202;0.278;2023-08-20T05:28:39;101896.85;;;25.22;46.62
77975;BME280;67164;51.202;0.278;2023-08-20T05:31:04;101899.55;;;25.36;46.54
77975;BME280;67164;51.202;0.278;2023-08-20T05:33:30;101897.29;;;25.14;46.77
77975;BME280;67164;51.202;0.278;2023-08-20T05:35:57;101900.77;;;25.42;46.76
77975;BME280;67164;51.202;0.278;2023-08-20T05:38:22;101902.74;;;25.06;46.63
77975;BME280;67164;51.202;0.278;2023-08-20T05:40:47;101907.24;;;25.07;46.36
77975;BME280;67164;51.202;0.278;2023-08-20T05:43:13;101903.86;;;24.94;46.97
77975;BME280;67164;51.202;0.278;2023-08-20T05:45:39;101907.64;;;25.03;46.90
77975;BME280;67164;51.202;0.278;2023-08-20T05:48:05;101909.02;;;25.17;46.68
77975;BME280;67164;51.202;0.278;2023-08-20T05:50:31;101905.83;;;25.05;46.82
77975;BME280;67164;51.202;0.278;2023-08-20T05:52:56;101907.43;;;24.81;46.73
77975;BME280;67164;51.202;0.278;2023-08-20T05:55:22;101907.68;;;25.32;46.77
77975;BME280;67164;51.202;0.278;2023-08-20T05:57:48;101910.46;;;24.90;46.77
77975;BME280;67164;51.202;0.278;2023-08-20T06:00:13;101910.93;;;25.43;46.49
77975;BME280;67164;51.202;0.278;2023-08-20T06:02:39;101908.64;;;25.35;46.69
77975;BME280;67164;51.202;0.278;2023-08-20T06:05:05;101906.93;;;25.36;46.65
77975;BME280;67164;51.202;0.278;2023-08-20T06:07:31;101910.27;;;25.42;46.63
77975;BME280;67164;51.202;0.278;2023-08-20T06:09:56;101907.72;;;25.21;46.47
77975;BME280;67164;51.202;0.278;2023-08-20T06:12:22;101907.80;;;24.82;46.65
77975;BME280;67164;51.202;0.278;2023-08-20T06:14:48;101914.44;;;25.43;46.46
77975;BME280;67164;51.202;0.278;2023-08-20T06:17:14;101913.15;;;25.30;46.64
77975;BME280;67164;51.202;0.278;2023-08-20T06:19:39;101914.22;;;25.20;46.56
77975;BME280;67164;51.202;0.278;2023-08-20T06:22:05;101917.38;;;24.80;46.81
77975;BME280;67164;51.202;0.278;2023-08-20T06:24:31;101918.90;;;25.24;46.72
77975;BME280;67164;51.202;0.278;2023-08-20T06:26:57;101921.10;;;24.76;46.69
77975;BME280;67164;51.202;0.278;2023-08-20T06:29:22;101921.37;;;24.98;46.85
77975;BME280;67164;51.202;0.278;2023-08-20T06:31:48;101917.61;;;25.34;46.65
77975;BME280;67164;51.202;0.278;2023-08-20T06:34:14;101918.57;;;25.25;46.80
77975;BME280;67164;51.202;0.278;2023-08-20T06:36:40;101930.92;;;25.18;46.86
77975;BME280;67164;51.202;0.278;2023-08-20T06:39:05;101935.59;;;25.07;46.81
77975;BME280;67164;51.202;0.278;2023-08-20T06:41:31;101934.61;;;25.00;46.87
77975;BME280;67164;51.202;0.278;2023-08-20T06:43:57;101934.33;;;25.18;46.58
77975;BME280;67164;51.202;0.278;2023-08-20T06:46:23;101932.65;;;25.00;46.81
77975;BME280;67164;51.202;0.278;2023-08-20T06:48:48;101932.94;;;24.69;46.91
77975;BME280;67164;51.202;0.278;2023-08-20T06:51:15;101933.71;;;25.16;46.70
77975;BME280;67164;51.202;0.278;2023-08-20T06:53:40;101939.44;;;25.32;46.83
77975;BME280;67164;51.202;0.278;2023-08-20T06:56:06;101941.05;;;25.08;46.49
77975;BME280;67164;51.202;0.278;2023-08-20T06:58:31;101944.34;;;25.48;46.26
77975;BME280;67164;51.202;0.278;2023-08-20T07:00:57;101949.78;;;25.67;46.08
77975;BME280;67164;51.202;0.278;2023-08-20T07:03:23;101951.81;;;25.76;45.62
77975;BME280;67164;51.202;0.278;2023-08-20T07:05:49;101952.57;;;25.78;45.93
77975;BME280;67164;51.202;0.278;2023-08-20T07:08:15;101955.48;;;25.77;45.66
77975;BME280;67164;51.202;0.278;2023-08-20T07:10:40;101954.45;;;26.11;45.41
77975;BME280;67164;51.202;0.278;2023-08-20T07:13:06;101956.41;;;25.83;45.67
77975;BME280;67164;51.202;0.278;2023-08-20T07:15:32;101961.37;;;25.65;45.85
77975;BME280;67164;51.202;0.278;2023-08-20T07:17:58;101964.79;;;25.92;45.43
77975;BME280;67164;51.202;0.278;2023-08-20T07:20:23;101959.04;;;25.73;45.20
77975;BME280;67164;51.202;0.278;2023-08-20T07:22:49;101959.31;;;25.47;45.50
77975;BME280;67164;51.202;0.278;2023-08-20T07:25:15;101956.99;;;25.61;45.85
77975;BME280;67164;51.202;0.278;2023-08-20T07:27:41;101954.65;;;26.20;45.82
77975;BME280;67164;51.202;0.278;2023-08-20T07:30:07;101953.73;;;25.92;45.67
77975;BME280;67164;51.202;0.278;2023-08-20T07:32:32;101960.02;;;25.79;45.99
77975;BME280;67164;51.202;0.278;2023-08-20T07:34:58;101957.68;;;25.87;45.99
77975;BME280;67164;51.202;0.278;2023-08-20T07:37:24;101955.15;;;25.90;46.11
77975;BME280;67164;51.202;0.278;2023-08-20T07:39:50;101957.37;;;25.92;46.22
77975;BME280;67164;51.202;0.278;2023-08-20T07:42:15;101953.34;;;26.12;45.98
77975;BME280;67164;51.202;0.278;2023-08-20T07:44:41;101951.98;;;26.18;46.36
77975;BME280;67164;51.202;0.278;2023-08-20T07:47:07;101951.59;;;25.93;46.84
77975;BME280;67164;51.202;0.278;2023-08-20T07:49:32;101957.67;;;25.78;47.54
77975;BME280;67164;51.202;0.278;2023-08-20T07:51:58;101957.47;;;25.89;48.19
77975;BME280;67164;51.202;0.278;2023-08-20T07:54:24;101957.50;;;25.83;48.32
77975;BME280;67164;51.202;0.278;2023-08-20T07:56:49;101956.75;;;26.09;48.29
77975;BME280;67164;51.202;0.278;2023-08-20T07:59:14;101957.77;;;25.78;48.62
77975;BME280;67164;51.202;0.278;2023-08-20T08:01:39;101956.94;;;25.56;49.03
77975;BME280;67164;51.202;0.278;2023-08-20T08:04:05;101955.27;;;25.83;48.62
77975;BME280;67164;51.202;0.278;2023-08-20T08:06:30;101959.37;;;25.73;48.88
77975;BME280;67164;51.202;0.278;2023-08-20T08:08:56;101959.90;;;25.77;48.81
77975;BME280;67164;51.202;0.278;2023-08-20T08:11:22;101958.28;;;25.67;49.13
77975;BME280;67164;51.202;0.278;2023-08-20T08:13:47;101961.57;;;25.37;49.41
77975;BME280;67164;51.202;0.278;2023-08-20T08:16:12;101957.04;;;25.76;49.01
77975;BME280;67164;51.202;0.278;2023-08-20T08:18:37;101954.41;;;25.59;49.49
77975;BME280;67164;51.202;0.278;2023-08-20T08:21:03;101956.82;;;25.75;49.40
77975;BME280;67164;51.202;0.278;2023-08-20T08:23:28;101956.91;;;25.25;50.51
77975;BME280;67164;51.202;0.278;2023-08-20T08:25:54;101951.06;;;25.03;50.96
77975;BME280;67164;51.202;0.278;2023-08-20T08:28:19;101950.30;;;25.60;49.95
77975;BME280;67164;51.202;0.278;2023-08-20T08:30:45;101949.20;;;25.82;49.74
77975;BME280;67164;51.202;0.278;2023-08-20T08:33:10;101949.45;;;26.06;49.19
77975;BME280;67164;51.202;0.278;2023-08-20T08:35:36;101952.67;;;26.13;49.16
77975;BME280;67164;51.202;0.278;2023-08-20T08:38:01;101956.21;;;26.09;49.29
77975;BME280;67164;51.202;0.278;2023-08-20T08:40:29;101957.34;;;25.81;49.33
77975;BME280;67164;51.202;0.278;2023-08-20T08:42:52;101961.90;;;25.83;49.38
77975;BME280;67164;51.202;0.278;2023-08-20T08:45:18;101960.67;;;25.98;49.74
77975;BME280;67164;51.202;0.278;2023-08-20T08:47:44;101965.46;;;25.81;49.57
77975;BME280;67164;51.202;0.278;2023-08-20T08:50:09;101969.95;;;26.06;49.46
77975;BME280;67164;51.202;0.278;2023-08-20T08:52:34;101967.52;;;25.88;49.27
77975;BME280;67164;51.202;0.278;2023-08-20T08:54:59;101970.17;;;25.72;49.67
77975;BME280;67164;51.202;0.278;2023-08-20T08:57:24;101969.61;;;26.02;49.68
77975;BME280;67164;51.202;0.278;2023-08-20T08:59:50;101971.70;;;26.05;49.46
77975;BME280;67164;51.202;0.278;2023-08-20T09:02:17;101964.77;;;26.07;49.51
77975;BME280;67164;51.202;0.278;2023-08-20T09:04:41;101963.40;;;26.15;49.37
77975;BME280;67164;51.202;0.278;2023-08-20T09:07:11;101957.99;;;26.33;48.96
77975;BME280;67164;51.202;0.278;2023-08-20T09:09:31;101956.41;;;26.32;48.74
77975;BME280;67164;51.202;0.278;2023-08-20T09:11:57;101953.03;;;26.40;48.65
77975;BME280;67164;51.202;0.278;2023-08-20T09:14:24;101952.52;;;26.29;48.60
77975;BME280;67164;51.202;0.278;2023-08-20T09:16:54;101949.25;;;26.36;48.50
77975;BME280;67164;51.202;0.278;2023-08-20T09:19:14;101949.62;;;26.26;48.87
77975;BME280;67164;51.202;0.278;2023-08-20T09:21:39;101955.39;;;26.50;48.40
77975;BME280;67164;51.202;0.278;2023-08-20T09:24:06;101954.78;;;26.42;48.39
77975;BME280;67164;51.202;0.278;2023-08-20T09:26:31;101956.24;;;26.16;48.41
77975;BME280;67164;51.202;0.278;2023-08-20T09:28:57;101952.64;;;26.12;48.42
77975;BME280;67164;51.202;0.278;2023-08-20T09:33:50;101951.45;;;26.22;48.30
77975;BME280;67164;51.202;0.278;2023-08-20T09:36:13;101949.73;;;26.19;48.42
77975;BME280;67164;51.202;0.278;2023-08-20T09:38:39;101948.57;;;26.61;48.16
77975;BME280;67164;51.202;0.278;2023-08-20T09:41:05;101949.80;;;25.97;48.53
77975;BME280;67164;51.202;0.278;2023-08-20T09:43:31;101949.35;;;26.32;48.89
77975;BME280;67164;51.202;0.278;2023-08-20T09:45:59;101949.36;;;26.01;48.52
77975;BME280;67164;51.202;0.278;2023-08-20T09:48:24;101946.05;;;26.12;48.75
77975;BME280;67164;51.202;0.278;2023-08-20T09:50:49;101953.76;;;26.20;48.72
77975;BME280;67164;51.202;0.278;2023-08-20T09:53:19;101948.32;;;26.18;48.72
77975;BME280;67164;51.202;0.278;2023-08-20T09:55:39;101946.82;;;26.34;48.92
77975;BME280;67164;51.202;0.278;2023-08-20T09:58:06;101947.57;;;26.43;48.81
77975;BME280;67164;51.202;0.278;2023-08-20T10:00:30;101944.05;;;26.19;49.23
77975;BME280;67164;51.202;0.278;2023-08-20T10:02:56;101950.28;;;26.15;48.89
77975;BME280;67164;51.202;0.278;2023-08-20T10:05:23;101949.06;;;26.10;48.97
77975;BME280;67164;51.202;0.278;2023-08-20T10:07:47;101949.76;;;26.39;48.89
77975;BME280;67164;51.202;0.278;2023-08-20T10:10:13;101951.86;;;26.28;48.86
77975;BME280;67164;51.202;0.278;2023-08-20T10:12:40;101950.04;;;26.04;48.84
77975;BME280;67164;51.202;0.278;2023-08-20T10:15:06;101952.45;;;26.27;49.00
77975;BME280;67164;51.202;0.278;2023-08-20T10:17:32;101955.32;;;26.28;48.96
77975;BME280;67164;51.202;0.278;2023-08-20T10:19:57;101953.20;;;26.13;49.19
77975;BME280;67164;51.202;0.278;2023-08-20T10:22:21;101951.05;;;25.82;49.31
77975;BME280;67164;51.202;0.278;2023-08-20T10:24:49;101949.64;;;25.88;49.18
77975;BME280;67164;51.202;0.278;2023-08-20T10:27:12;101946.65;;;26.03;49.35
77975;BME280;67164;51.202;0.278;2023-08-20T10:29:39;101947.95;;;26.18;49.05
77975;BME280;67164;51.202;0.278;2023-08-20T10:32:06;101949.44;;;26.05;48.86
77975;BME280;67164;51.202;0.278;2023-08-20T10:34:33;101951.25;;;26.03;48.99
77975;BME280;67164;51.202;0.278;2023-08-20T10:36:55;101946.30;;;26.07;48.91
77975;BME280;67164;51.202;0.278;2023-08-20T10:39:21;101951.90;;;26.29;48.95
77975;BME280;67164;51.202;0.278;2023-08-20T10:41:47;101956.06;;;26.14;49.22
77975;BME280;67164;51.202;0.278;2023-08-20T10:44:14;101954.93;;;25.98;49.08
77975;BME280;67164;51.202;0.278;2023-08-20T10:49:04;101954.46;;;26.04;48.91
77975;BME280;67164;51.202;0.278;2023-08-20T10:51:32;101952.89;;;25.61;49.71
77975;BME280;67164;51.202;0.278;2023-08-20T10:54:02;101959.38;;;25.43;49.90
77975;BME280;67164;51.202;0.278;2023-08-20T10:56:21;101958.05;;;25.75;49.58
77975;BME280;67164;51.202;0.278;2023-08-20T10:58:47;101954.68;;;26.17;49.21
77975;BME280;67164;51.202;0.278;2023-08-20T11:01:19;101950.60;;;26.00;49.14
77975;BME280;67164;51.202;0.278;2023-08-20T11:03:39;101951.03;;;26.16;49.25
77975;BME280;67164;51.202;0.278;2023-08-20T11:06:04;101948.71;;;26.01;49.10
77975;BME280;67164;51.202;0.278;2023-08-20T11:08:30;101946.30;;;26.37;48.92
77975;BME280;67164;51.202;0.278;2023-08-20T11:10:55;101947.66;;;26.11;49.02
77975;BME280;67164;51.202;0.278;2023-08-20T11:13:21;101948.66;;;26.30;49.07
77975;BME280;67164;51.202;0.278;2023-08-20T11:15:50;101943.18;;;26.07;49.29
77975;BME280;67164;51.202;0.278;2023-08-20T11:18:11;101947.58;;;26.26;48.59
77975;BME280;67164;51.202;0.278;2023-08-20T11:20:36;101944.21;;;26.37;46.86
77975;BME280;67164;51.202;0.278;2023-08-20T11:23:02;101943.82;;;26.09;46.37
77975;BME280;67164;51.202;0.278;2023-08-20T11:25:28;101942.94;;;26.07;47.31
77975;BME280;67164;51.202;0.278;2023-08-20T11:27:53;101945.08;;;25.72;47.79
77975;BME280;67164;51.202;0.278;2023-08-20T11:30:18;101943.47;;;25.99;47.59
77975;BME280;67164;51.202;0.278;2023-08-20T11:32:44;101944.31;;;26.01;46.75
77975;BME280;67164;51.202;0.278;2023-08-20T11:35:10;101947.23;;;25.89;46.44
77975;BME280;67164;51.202;0.278;2023-08-20T11:37:35;101932.87;;;26.08;46.70
77975;BME280;67164;51.202;0.278;2023-08-20T11:40:01;101933.63;;;26.04;45.81
77975;BME280;67164;51.202;0.278;2023-08-20T11:42:27;101931.44;;;26.03;45.67
77975;BME280;67164;51.202;0.278;2023-08-20T11:44:55;101934.94;;;25.76;45.36
77975;BME280;67164;51.202;0.278;2023-08-20T11:47:18;101928.85;;;25.97;44.63
77975;BME280;67164;51.202;0.278;2023-08-20T11:49:44;101919.61;;;25.92;44.59
77975;BME280;67164;51.202;0.278;2023-08-20T11:52:10;101920.78;;;25.77;44.54
77975;BME280;67164;51.202;0.278;2023-08-20T11:54:35;101922.12;;;26.00;44.79
77975;BME280;67164;51.202;0.278;2023-08-20T11:57:03;101924.47;;;26.10;44.84
77975;BME280;67164;51.202;0.278;2023-08-20T11:59:26;101921.46;;;26.25;44.77
77975;BME280;67164;51.202;0.278;2023-08-20T12:01:54;101924.61;;;25.91;44.72
77975;BME280;67164;51.202;0.278;2023-08-20T12:04:18;101922.24;;;25.98;44.65
77975;BME280;67164;51.202;0.278;2023-08-20T12:06:44;101919.09;;;26.14;44.64
77975;BME280;67164;51.202;0.278;2023-08-20T12:09:19;101920.08;;;26.15;44.36
77975;BME280;67164;51.202;0.278;2023-08-20T12:11:35;101923.44;;;26.26;44.88
77975;BME280;67164;51.202;0.278;2023-08-20T12:14:01;101921.90;;;26.30;45.07
77975;BME280;67164;51.202;0.278;2023-08-20T12:16:26;101922.82;;;26.30;45.25
77975;BME280;67164;51.202;0.278;2023-08-20T12:18:52;101926.54;;;26.09;45.38
77975;BME280;67164;51.202;0.278;2023-08-20T12:21:18;101921.83;;;26.34;45.45
77975;BME280;67164;51.202;0.278;2023-08-20T12:23:44;101923.95;;;26.33;45.50
77975;BME280;67164;51.202;0.278;2023-08-20T12:26:09;101925.21;;;26.29;44.81
77975;BME280;67164;51.202;0.278;2023-08-20T12:28:35;101926.37;;;26.25;45.01
77975;BME280;67164;51.202;0.278;2023-08-20T12:31:01;101927.30;;;26.00;44.98
77975;BME280;67164;51.202;0.278;2023-08-20T12:33:26;101924.92;;;26.54;45.34
77975;BME280;67164;51.202;0.278;2023-08-20T12:35:54;101923.27;;;26.18;45.41
77975;BME280;67164;51.202;0.278;2023-08-20T12:38:18;101922.06;;;26.43;45.57
77975;BME280;67164;51.202;0.278;2023-08-20T12:40:44;101921.33;;;26.48;45.70
77975;BME280;67164;51.202;0.278;2023-08-20T12:43:09;101918.14;;;26.48;45.76
77975;BME280;67164;51.202;0.278;2023-08-20T12:45:35;101917.26;;;26.39;45.31